createdAt,value
2024-05-09T00:00:29.914Z,91.6737
2024-05-09T00:01:23.495Z,91.5884
2024-05-09T00:02:25.312Z,91.4392
2024-05-09T00:03:27.051Z,91.1872
2024-05-09T00:04:28.728Z,91.1966
2024-05-09T00:05:30.608Z,91.2417
2024-05-09T00:06:32.320Z,91.5692
2024-05-09T00:07:34.060Z,91.7171
2024-05-09T00:08:35.879Z,91.7873
2024-05-09T00:09:37.882Z,91.7669
2024-05-09T00:10:40.657Z,91.7862
2024-05-09T00:11:40.678Z,92.0240
2024-05-09T00:12:42.439Z,91.9308
2024-05-09T00:13:44.338Z,91.8986
2024-05-09T00:14:45.960Z,91.9595
2024-05-09T00:15:47.589Z,92.0242
2024-05-09T00:16:49.312Z,91.9369
2024-05-09T00:17:51.634Z,91.7440
2024-05-09T00:18:54.297Z,91.6944
2024-05-09T00:19:56.166Z,91.7454
2024-05-09T00:20:57.942Z,91.5104
2024-05-09T00:21:59.640Z,91.4282
2024-05-09T00:23:01.458Z,91.5701
2024-05-09T00:24:03.233Z,91.5401
2024-05-09T00:25:04.871Z,91.5191
2024-05-09T00:26:06.634Z,91.5815
2024-05-09T00:27:08.945Z,91.6484
2024-05-09T00:28:09.131Z,91.7619
2024-05-09T00:29:10.778Z,91.8835
2024-05-09T00:30:17.824Z,91.8730
2024-05-09T00:31:14.527Z,92.0340
2024-05-09T00:32:16.362Z,91.9954
2024-05-09T00:33:18.377Z,92.1495
2024-05-09T00:34:20.327Z,92.2123
2024-05-09T00:35:22.266Z,92.4060
2024-05-09T00:36:24.240Z,92.3002
2024-05-09T00:37:26.051Z,92.3393
2024-05-09T00:38:27.868Z,92.3953
2024-05-09T00:39:29.614Z,92.5228
2024-05-09T00:40:38.586Z,92.6301
2024-05-09T00:41:33.413Z,92.7267
2024-05-09T00:42:35.178Z,92.6651
2024-05-09T00:43:36.948Z,92.7663
2024-05-09T00:44:38.662Z,92.8581
2024-05-09T00:45:40.423Z,92.8762
2024-05-09T00:46:42.141Z,92.7524
2024-05-09T00:47:44.441Z,92.6434
2024-05-09T00:48:46.464Z,92.3766
2024-05-09T00:49:48.497Z,92.3613
2024-05-09T00:50:50.305Z,92.3078
2024-05-09T00:51:52.211Z,92.3581
2024-05-09T00:52:53.846Z,92.2377
2024-05-09T00:53:55.938Z,92.1877
2024-05-09T00:54:57.638Z,92.2571
2024-05-09T00:55:59.404Z,92.1567
2024-05-09T00:57:01.057Z,92.0058
2024-05-09T00:58:02.881Z,91.9288
2024-05-09T00:59:04.672Z,92.0098
2024-05-09T01:00:12.079Z,91.6962
2024-05-09T01:01:08.561Z,91.3505
2024-05-09T01:02:10.440Z,91.4855
2024-05-09T01:03:13.904Z,91.5970
2024-05-09T01:04:13.581Z,91.5862
2024-05-09T01:05:15.394Z,91.3476
2024-05-09T01:06:17.269Z,91.4421
2024-05-09T01:07:19.051Z,91.5354
2024-05-09T01:08:21.045Z,91.4253
2024-05-09T01:09:22.911Z,91.3340
2024-05-09T01:10:32.210Z,91.2700
2024-05-09T01:11:26.917Z,91.1461
2024-05-09T01:12:28.846Z,91.1557
2024-05-09T01:13:30.538Z,91.2212
2024-05-09T01:14:32.444Z,91.0594
2024-05-09T01:15:34.215Z,90.7955
2024-05-09T01:16:36.162Z,90.9173
2024-05-09T01:17:38.082Z,91.0370
2024-05-09T01:18:40.032Z,90.9856
2024-05-09T01:19:41.941Z,90.8911
2024-05-09T01:20:45.313Z,91.0819
2024-05-09T01:21:44.676Z,90.9519
2024-05-09T01:22:46.423Z,91.0441
2024-05-09T01:23:48.115Z,91.1798
2024-05-09T01:24:49.977Z,91.1169
2024-05-09T01:25:51.679Z,91.0043
2024-05-09T01:26:53.472Z,90.7838
2024-05-09T01:27:55.223Z,90.9052
2024-05-09T01:28:56.972Z,90.7408
2024-05-09T01:29:58.748Z,90.8012
2024-05-09T01:31:00.464Z,90.7096
2024-05-09T01:32:02.320Z,90.9224
2024-05-09T01:33:04.957Z,90.9696
2024-05-09T01:34:04.937Z,90.8965
2024-05-09T01:35:06.653Z,90.9660
2024-05-09T01:36:08.594Z,91.0178
2024-05-09T01:37:10.363Z,90.9067
2024-05-09T01:38:12.312Z,91.0565
2024-05-09T01:39:14.209Z,91.0106
2024-05-09T01:40:21.961Z,90.9073
2024-05-09T01:41:18.078Z,91.0169
2024-05-09T01:42:19.782Z,91.0811
2024-05-09T01:43:21.590Z,90.8610
2024-05-09T01:44:23.412Z,90.9880
2024-05-09T01:45:25.116Z,90.9318
2024-05-09T01:46:26.846Z,90.7853
2024-05-09T01:47:28.632Z,90.6292
2024-05-09T01:48:30.463Z,90.6661
2024-05-09T01:49:32.277Z,90.6888
2024-05-09T01:50:39.108Z,90.9317
2024-05-09T01:51:36.288Z,90.9586
2024-05-09T01:52:38.030Z,90.6534
2024-05-09T01:53:39.856Z,90.5638
2024-05-09T01:54:41.617Z,90.7285
2024-05-09T01:55:43.591Z,90.7299
2024-05-09T01:56:45.406Z,90.5614
2024-05-09T01:57:47.157Z,90.5497
2024-05-09T01:58:48.926Z,90.5672
2024-05-09T01:59:50.692Z,90.5877
2024-05-09T02:00:52.616Z,90.7428
2024-05-09T02:01:57.004Z,90.8100
2024-05-09T02:02:56.921Z,90.7960
2024-05-09T02:03:59.065Z,90.6626
2024-05-09T02:05:01.239Z,90.5375
2024-05-09T02:06:03.162Z,90.7138
2024-05-09T02:07:04.930Z,90.9586
2024-05-09T02:08:06.717Z,90.8651
2024-05-09T02:09:08.370Z,91.0101
2024-05-09T02:10:16.533Z,90.9395
2024-05-09T02:11:12.442Z,90.7839
2024-05-09T02:12:14.608Z,90.5363
2024-05-09T02:13:16.729Z,90.6378
2024-05-09T02:14:18.552Z,90.6905
2024-05-09T02:15:20.287Z,90.7485
2024-05-09T02:16:22.044Z,90.7804
2024-05-09T02:17:23.908Z,90.7590
2024-05-09T02:18:25.807Z,90.6240
2024-05-09T02:19:27.710Z,90.5810
2024-05-09T02:20:34.185Z,90.7217
2024-05-09T02:21:31.831Z,90.5814
2024-05-09T02:22:33.569Z,90.6215
2024-05-09T02:23:35.353Z,90.6552
2024-05-09T02:24:37.137Z,90.7285
2024-05-09T02:25:38.891Z,90.8182
2024-05-09T02:26:40.752Z,90.9053
2024-05-09T02:27:42.458Z,90.9128
2024-05-09T02:28:44.161Z,91.0242
2024-05-09T02:29:45.825Z,90.8161
2024-05-09T02:30:47.560Z,90.8009
2024-05-09T02:31:49.542Z,90.9536
2024-05-09T02:32:51.450Z,91.0516
2024-05-09T02:33:53.438Z,91.1725
2024-05-09T02:34:55.393Z,91.1135
2024-05-09T02:35:57.083Z,91.0365
2024-05-09T02:36:58.910Z,91.1578
2024-05-09T02:38:00.953Z,91.3083
2024-05-09T02:39:02.740Z,91.3759
2024-05-09T02:40:05.648Z,91.1897
2024-05-09T02:41:04.770Z,91.1957
2024-05-09T02:42:06.455Z,91.3052
2024-05-09T02:43:09.314Z,91.3841
2024-05-09T02:44:09.750Z,91.4013
2024-05-09T02:45:11.698Z,91.2569
2024-05-09T02:46:13.411Z,91.3224
2024-05-09T02:47:15.248Z,91.4378
2024-05-09T02:48:17.056Z,91.3781
2024-05-09T02:49:19.112Z,91.3959
2024-05-09T02:50:29.712Z,91.4057
2024-05-09T02:51:23.179Z,91.5545
2024-05-09T02:52:24.921Z,91.4744
2024-05-09T02:53:26.819Z,91.3911
2024-05-09T02:54:28.538Z,91.4631
2024-05-09T02:55:30.254Z,91.4789
2024-05-09T02:56:32.005Z,91.5224
2024-05-09T02:57:33.781Z,91.6127
2024-05-09T02:58:35.485Z,91.5751
2024-05-09T02:59:37.326Z,91.6114
2024-05-09T03:00:41.505Z,91.6343
2024-05-09T03:01:39.332Z,91.5312
2024-05-09T03:02:41.117Z,91.6416
2024-05-09T03:03:43.109Z,91.6720
2024-05-09T03:04:45.175Z,91.6634
2024-05-09T03:05:47.147Z,91.6372
2024-05-09T03:06:48.949Z,91.5292
2024-05-09T03:07:50.746Z,91.5491
2024-05-09T03:08:52.511Z,91.5123
2024-05-09T03:09:54.220Z,91.6302
2024-05-09T03:10:56.139Z,91.5222
2024-05-09T03:11:57.951Z,91.7859
2024-05-09T03:12:59.815Z,91.6184
2024-05-09T03:14:01.574Z,91.5853
2024-05-09T03:15:03.324Z,91.6231
2024-05-09T03:16:05.126Z,91.5860
2024-05-09T03:17:07.018Z,91.6241
2024-05-09T03:18:08.885Z,91.6471
2024-05-09T03:19:11.018Z,91.6298
2024-05-09T03:20:20.483Z,91.5335
2024-05-09T03:21:14.974Z,91.4994
2024-05-09T03:22:16.612Z,91.4222
2024-05-09T03:23:18.428Z,91.4807
2024-05-09T03:24:20.137Z,91.4513
2024-05-09T03:25:21.872Z,91.4792
2024-05-09T03:26:23.804Z,91.6766
2024-05-09T03:27:25.580Z,91.7015
2024-05-09T03:28:27.248Z,91.7494
2024-05-09T03:29:29.009Z,91.6486
2024-05-09T03:30:39.419Z,91.6505
2024-05-09T03:31:32.855Z,91.7735
2024-05-09T03:32:34.688Z,91.9190
2024-05-09T03:33:36.860Z,91.8491
2024-05-09T03:34:39.023Z,91.7223
2024-05-09T03:35:40.936Z,91.7729
2024-05-09T03:36:42.727Z,91.6775
2024-05-09T03:37:44.465Z,91.7190
2024-05-09T03:38:46.260Z,91.7275
2024-05-09T03:39:47.927Z,91.7323
2024-05-09T03:40:50.371Z,91.7441
2024-05-09T03:41:50.051Z,91.7306
2024-05-09T03:42:51.818Z,91.8504
2024-05-09T03:43:53.589Z,91.9256
2024-05-09T03:44:55.309Z,91.8278
2024-05-09T03:45:57.044Z,91.5642
2024-05-09T03:46:58.972Z,91.7511
2024-05-09T03:48:00.816Z,91.8097
2024-05-09T03:49:02.787Z,91.7843
2024-05-09T03:50:05.608Z,91.8847
2024-05-09T03:51:05.037Z,91.8281
2024-05-09T03:52:06.782Z,91.8487
2024-05-09T03:53:08.582Z,91.8276
2024-05-09T03:54:10.223Z,91.8777
2024-05-09T03:55:12.042Z,91.9391
2024-05-09T03:56:13.777Z,91.9148
2024-05-09T03:57:15.549Z,91.8816
2024-05-09T03:58:17.261Z,91.8809
2024-05-09T03:59:19.060Z,91.9240
2024-05-09T04:00:30.463Z,92.0063
2024-05-09T04:01:22.876Z,92.0073
2024-05-09T04:02:24.641Z,92.1218
2024-05-09T04:03:26.878Z,92.0884
2024-05-09T04:04:28.902Z,92.2752
2024-05-09T04:05:30.918Z,92.1803
2024-05-09T04:06:32.973Z,92.0937
2024-05-09T04:07:34.698Z,92.1595
2024-05-09T04:08:36.605Z,92.0516
2024-05-09T04:09:38.544Z,92.0155
2024-05-09T04:10:40.317Z,91.9550
2024-05-09T04:11:42.140Z,91.8873
2024-05-09T04:12:43.855Z,91.8136
2024-05-09T04:13:45.636Z,91.5989
2024-05-09T04:14:47.429Z,91.5138
2024-05-09T04:15:49.171Z,91.4728
2024-05-09T04:16:50.935Z,91.2732
2024-05-09T04:17:52.877Z,91.2791
2024-05-09T04:18:54.834Z,91.1412
2024-05-09T04:19:56.574Z,91.0910
2024-05-09T04:20:58.328Z,91.3483
2024-05-09T04:22:00.052Z,91.3497
2024-05-09T04:23:01.811Z,91.1777
2024-05-09T04:24:03.597Z,91.2483
2024-05-09T04:25:05.290Z,91.1970
2024-05-09T04:26:07.068Z,91.2591
2024-05-09T04:27:08.760Z,91.1238
2024-05-09T04:28:10.485Z,90.9936
2024-05-09T04:29:12.443Z,91.0872
2024-05-09T04:30:21.702Z,90.9271
2024-05-09T04:31:16.289Z,91.0425
2024-05-09T04:32:18.037Z,91.1614
2024-05-09T04:33:20.345Z,91.2279
2024-05-09T04:34:22.671Z,91.0406
2024-05-09T04:35:24.767Z,91.0735
2024-05-09T04:36:26.594Z,91.1913
2024-05-09T04:37:28.308Z,91.1774
2024-05-09T04:38:30.028Z,91.0660
2024-05-09T04:39:31.855Z,91.0110
2024-05-09T04:40:36.199Z,91.0210
2024-05-09T04:41:36.356Z,91.0432
2024-05-09T04:42:38.126Z,91.0261
2024-05-09T04:43:39.810Z,91.1151
2024-05-09T04:44:41.657Z,91.2134
2024-05-09T04:45:43.364Z,90.9916
2024-05-09T04:46:45.177Z,90.7416
2024-05-09T04:47:47.067Z,90.4918
2024-05-09T04:48:49.101Z,90.5142
2024-05-09T04:49:51.035Z,90.5651
2024-05-09T04:50:52.840Z,90.4551
2024-05-09T04:51:54.603Z,90.4922
2024-05-09T04:52:56.387Z,90.6702
2024-05-09T04:53:58.106Z,90.7809
2024-05-09T04:54:59.899Z,90.8165
2024-05-09T04:56:01.672Z,90.8558
2024-05-09T04:57:03.406Z,90.9001
2024-05-09T04:58:05.082Z,91.0425
2024-05-09T04:59:06.972Z,90.8094
2024-05-09T05:00:14.611Z,90.7205
2024-05-09T05:01:10.849Z,90.8218
2024-05-09T05:02:12.821Z,90.7094
2024-05-09T05:03:16.029Z,90.6643
2024-05-09T05:04:15.855Z,90.5438
2024-05-09T05:05:17.902Z,90.6781
2024-05-09T05:06:19.824Z,90.5134
2024-05-09T05:07:21.574Z,90.5468
2024-05-09T05:08:23.417Z,90.6670
2024-05-09T05:09:25.128Z,90.4804
2024-05-09T05:10:33.592Z,90.7829
2024-05-09T05:11:29.145Z,90.7259
2024-05-09T05:12:31.163Z,90.7279
2024-05-09T05:13:33.143Z,90.8591
2024-05-09T05:14:34.954Z,90.8334
2024-05-09T05:15:36.771Z,90.9660
2024-05-09T05:16:38.514Z,90.8840
2024-05-09T05:17:40.555Z,90.6368
2024-05-09T05:18:42.475Z,90.5896
2024-05-09T05:19:44.543Z,90.6795
2024-05-09T05:20:46.531Z,90.6104
2024-05-09T05:21:48.395Z,90.5470
2024-05-09T05:22:50.246Z,90.6412
2024-05-09T05:23:52.049Z,90.6914
2024-05-09T05:24:53.841Z,90.3100
2024-05-09T05:25:55.991Z,90.3961
2024-05-09T05:26:57.937Z,90.5518
2024-05-09T05:27:59.688Z,90.6264
2024-05-09T05:29:01.528Z,90.4936
2024-05-09T05:30:03.576Z,90.5958
2024-05-09T05:31:04.764Z,90.6401
2024-05-09T05:32:06.652Z,90.7473
2024-05-09T05:33:08.585Z,90.7349
2024-05-09T05:34:10.485Z,90.6857
2024-05-09T05:35:12.340Z,90.6812
2024-05-09T05:36:14.099Z,90.8557
2024-05-09T05:37:15.912Z,90.9374
2024-05-09T05:38:17.968Z,90.5828
2024-05-09T05:39:19.894Z,90.6735
2024-05-09T05:40:28.354Z,90.6100
2024-05-09T05:41:23.850Z,90.5042
2024-05-09T05:42:25.603Z,90.4873
2024-05-09T05:43:27.468Z,90.7708
2024-05-09T05:44:29.299Z,90.9744
2024-05-09T05:45:31.118Z,90.7089
2024-05-09T05:46:32.879Z,90.4054
2024-05-09T05:47:34.971Z,90.5828
2024-05-09T05:48:37.145Z,90.4953
2024-05-09T05:49:39.096Z,90.5380
2024-05-09T05:50:41.072Z,90.3913
2024-05-09T05:51:42.840Z,90.3180
2024-05-09T05:52:44.645Z,90.3942
2024-05-09T05:53:46.575Z,90.2118
2024-05-09T05:54:48.363Z,90.0620
2024-05-09T05:55:50.206Z,90.1706
2024-05-09T05:56:52.056Z,90.1889
2024-05-09T05:57:53.853Z,90.4397
2024-05-09T05:58:55.660Z,90.4410
2024-05-09T05:59:57.429Z,90.2067
2024-05-09T06:00:59.230Z,90.1833
2024-05-09T06:02:01.193Z,90.3064
2024-05-09T06:03:03.143Z,90.2536
2024-05-09T06:04:05.076Z,90.3290
2024-05-09T06:05:06.872Z,90.3494
2024-05-09T06:06:08.631Z,90.2659
2024-05-09T06:07:10.417Z,90.2365
2024-05-09T06:08:12.392Z,90.1855
2024-05-09T06:09:14.326Z,89.8199
2024-05-09T06:10:21.466Z,89.4378
2024-05-09T06:11:18.321Z,89.1717
2024-05-09T06:12:20.165Z,89.3690
2024-05-09T06:13:21.995Z,89.3238
2024-05-09T06:14:23.852Z,89.3156
2024-05-09T06:15:25.861Z,89.1193
2024-05-09T06:16:27.614Z,89.1354
2024-05-09T06:17:29.493Z,89.2801
2024-05-09T06:18:31.502Z,89.2355
2024-05-09T06:19:33.702Z,89.0370
2024-05-09T06:20:37.903Z,88.2867
2024-05-09T06:21:37.823Z,88.0570
2024-05-09T06:22:39.603Z,88.1726
2024-05-09T06:23:41.363Z,88.0448
2024-05-09T06:24:43.178Z,87.8422
2024-05-09T06:25:45.099Z,87.7483
2024-05-09T06:26:46.868Z,87.1322
2024-05-09T06:27:48.669Z,86.9213
2024-05-09T06:28:50.523Z,86.6581
2024-05-09T06:29:52.286Z,85.9923
2024-05-09T06:30:54.058Z,86.1371
2024-05-09T06:31:59.523Z,86.0367
2024-05-09T06:32:56.367Z,86.1327
2024-05-09T06:33:58.382Z,85.5701
2024-05-09T06:35:00.296Z,84.6971
2024-05-09T06:36:02.050Z,85.1385
2024-05-09T06:37:03.816Z,84.5765
2024-05-09T06:38:05.696Z,84.0964
2024-05-09T06:39:07.517Z,84.3818
2024-05-09T06:40:10.081Z,84.2948
2024-05-09T06:41:09.317Z,84.0516
2024-05-09T06:42:11.077Z,84.1978
2024-05-09T06:43:12.970Z,84.6108
2024-05-09T06:44:14.793Z,84.5204
2024-05-09T06:45:16.587Z,84.5611
2024-05-09T06:46:18.386Z,84.7859
2024-05-09T06:47:20.358Z,84.2737
2024-05-09T06:48:22.944Z,84.6038
2024-05-09T06:49:22.475Z,84.9340
2024-05-09T06:50:28.146Z,83.6534
2024-05-09T06:51:26.480Z,81.8456
2024-05-09T06:52:28.307Z,82.0550
2024-05-09T06:53:30.105Z,82.8892
2024-05-09T06:54:31.890Z,82.5137
2024-05-09T06:55:33.742Z,82.5952
2024-05-09T06:56:35.575Z,83.3806
2024-05-09T06:57:39.179Z,83.5090
2024-05-09T06:58:37.698Z,83.8837
2024-05-09T06:59:39.484Z,84.0656
2024-05-09T07:00:42.216Z,84.9840
2024-05-09T07:01:41.524Z,84.3431
2024-05-09T07:02:43.365Z,84.8664
2024-05-09T07:03:45.238Z,84.6030
2024-05-09T07:04:47.199Z,84.4726
2024-05-09T07:05:49.865Z,84.6523
2024-05-09T07:06:49.127Z,84.8155
2024-05-09T07:07:50.935Z,84.6442
2024-05-09T07:08:52.863Z,84.9418
2024-05-09T07:09:54.666Z,85.0466
2024-05-09T07:10:56.506Z,85.2351
2024-05-09T07:11:58.370Z,85.1166
2024-05-09T07:13:00.180Z,85.2714
2024-05-09T07:14:02.001Z,84.8704
2024-05-09T07:15:03.814Z,84.7277
2024-05-09T07:16:05.591Z,84.9266
2024-05-09T07:17:07.521Z,84.9294
2024-05-09T07:18:09.524Z,84.7747
2024-05-09T07:19:11.612Z,84.5262
2024-05-09T07:20:23.027Z,84.7175
2024-05-09T07:21:15.776Z,84.6201
2024-05-09T07:22:17.653Z,84.6591
2024-05-09T07:23:19.655Z,84.6392
2024-05-09T07:24:21.725Z,84.1899
2024-05-09T07:25:23.521Z,84.1661
2024-05-09T07:26:25.385Z,83.6754
2024-05-09T07:27:27.207Z,83.6584
2024-05-09T07:28:28.968Z,82.8353
2024-05-09T07:29:30.847Z,83.1691
2024-05-09T07:30:34.399Z,83.0242
2024-05-09T07:31:34.233Z,82.7721
2024-05-09T07:32:36.141Z,82.9111
2024-05-09T07:33:37.957Z,81.8310
2024-05-09T07:34:39.841Z,82.5721
2024-05-09T07:35:41.669Z,82.6560
2024-05-09T07:36:43.393Z,82.0989
2024-05-09T07:37:45.218Z,82.1131
2024-05-09T07:38:46.997Z,82.5428
2024-05-09T07:39:48.795Z,82.9598
2024-05-09T07:40:50.637Z,83.2009
2024-05-09T07:41:52.522Z,83.3838
2024-05-09T07:42:54.290Z,83.5597
2024-05-09T07:43:56.089Z,83.1413
2024-05-09T07:45:14.551Z,83.3101
2024-05-09T07:46:28.567Z,82.4314
2024-05-09T07:53:29.268Z,82.3284
2024-05-09T07:53:37.744Z,83.1377
2024-05-09T07:54:17.031Z,82.7188
2024-05-09T07:55:19.220Z,82.6986
2024-05-09T07:56:22.831Z,82.2919
2024-05-09T07:57:23.109Z,82.6865
2024-05-09T07:58:24.898Z,81.7035
2024-05-09T07:59:26.656Z,81.5294
2024-05-09T08:00:31.516Z,81.2352
2024-05-09T08:01:28.882Z,80.9993
2024-05-09T08:02:30.841Z,80.6801
2024-05-09T08:03:32.976Z,80.7328
2024-05-09T08:04:35.015Z,80.1657
2024-05-09T08:05:37.095Z,80.3582
2024-05-09T08:06:39.097Z,79.9288
2024-05-09T08:07:40.952Z,79.3373
2024-05-09T08:08:42.799Z,78.3638
2024-05-09T08:09:44.665Z,78.9548
2024-05-09T08:10:46.602Z,79.2329
2024-05-09T08:11:48.490Z,78.7986
2024-05-09T08:12:50.487Z,79.3892
2024-05-09T08:13:52.246Z,79.4080
2024-05-09T08:14:54.086Z,78.4390
2024-05-09T08:15:55.945Z,79.0784
2024-05-09T08:16:57.763Z,79.1762
2024-05-09T08:17:59.783Z,79.4426
2024-05-09T08:19:01.731Z,78.9465
2024-05-09T08:20:05.432Z,79.6058
2024-05-09T08:21:04.678Z,80.4037
2024-05-09T08:22:06.794Z,79.1080
2024-05-09T08:23:08.754Z,79.7414
2024-05-09T08:24:10.723Z,79.6392
2024-05-09T08:25:14.161Z,79.2712
2024-05-09T08:26:13.586Z,79.5920
2024-05-09T08:27:15.411Z,80.0131
2024-05-09T08:28:17.388Z,80.0550
2024-05-09T08:29:19.264Z,80.3005
2024-05-09T08:30:25.482Z,80.3598
2024-05-09T08:31:23.554Z,80.7911
2024-05-09T08:32:25.402Z,80.6729
2024-05-09T08:33:27.396Z,80.5341
2024-05-09T08:34:29.480Z,80.9642
2024-05-09T08:35:31.484Z,81.1342
2024-05-09T08:36:33.554Z,81.3771
2024-05-09T08:37:38.783Z,81.2392
2024-05-09T08:38:37.443Z,81.0321
2024-05-09T08:39:39.267Z,81.2313
2024-05-09T08:40:41.259Z,80.9444
2024-05-09T08:41:43.181Z,80.6991
2024-05-09T08:42:45.040Z,80.7926
2024-05-09T08:43:46.910Z,79.4503
2024-05-09T08:44:48.829Z,80.0460
2024-05-09T08:45:50.737Z,79.7108
2024-05-09T08:46:52.533Z,78.7318
2024-05-09T08:47:54.438Z,78.4213
2024-05-09T08:48:56.351Z,77.7052
2024-05-09T08:49:58.280Z,77.9076
2024-05-09T08:51:00.161Z,78.5165
2024-05-09T08:52:02.059Z,77.8051
2024-05-09T08:53:03.888Z,77.8594
2024-05-09T08:54:05.696Z,77.5748
2024-05-09T08:55:07.617Z,78.7878
2024-05-09T08:56:09.440Z,78.9942
2024-05-09T08:57:11.229Z,78.7400
2024-05-09T08:58:13.094Z,78.8411
2024-05-09T08:59:15.114Z,78.4346
2024-05-09T09:00:25.603Z,78.1594
2024-05-09T09:01:19.327Z,78.4985
2024-05-09T09:02:21.492Z,78.3091
2024-05-09T09:03:23.528Z,78.0115
2024-05-09T09:04:25.557Z,78.0417
2024-05-09T09:05:27.792Z,77.2448
2024-05-09T09:06:29.682Z,77.9253
2024-05-09T09:07:31.635Z,77.5019
2024-05-09T09:08:33.548Z,77.2255
2024-05-09T09:09:35.360Z,77.9639
2024-05-09T09:10:37.251Z,78.3826
2024-05-09T09:11:38.998Z,79.2823
2024-05-09T09:12:40.788Z,79.9564
2024-05-09T09:13:42.635Z,79.7352
2024-05-09T09:14:44.476Z,79.8006
2024-05-09T09:15:46.387Z,79.2920
2024-05-09T09:16:48.165Z,79.0879
2024-05-09T09:17:50.067Z,78.3516
2024-05-09T09:18:52.477Z,77.8834
2024-05-09T09:19:54.822Z,77.7084
2024-05-09T09:20:56.802Z,77.8664
2024-05-09T09:21:58.558Z,78.3105
2024-05-09T09:23:00.613Z,78.4735
2024-05-09T09:24:02.456Z,78.1486
2024-05-09T09:25:04.394Z,78.0894
2024-05-09T09:26:06.288Z,77.7607
2024-05-09T09:27:08.051Z,77.6821
2024-05-09T09:28:10.129Z,77.9085
2024-05-09T09:29:12.004Z,77.9798
2024-05-09T09:30:27.680Z,77.2823
2024-05-09T09:31:16.122Z,77.0227
2024-05-09T09:32:18.110Z,75.9215
2024-05-09T09:33:19.994Z,74.9367
2024-05-09T09:34:22.040Z,74.0914
2024-05-09T09:35:23.852Z,74.4582
2024-05-09T09:36:25.809Z,75.3007
2024-05-09T09:37:27.608Z,75.0992
2024-05-09T09:38:29.651Z,74.7551
2024-05-09T09:39:31.520Z,74.4150
2024-05-09T09:40:35.902Z,75.3114
2024-05-09T09:41:35.590Z,74.8746
2024-05-09T09:42:37.439Z,74.8642
2024-05-09T09:43:39.404Z,74.0895
2024-05-09T09:44:42.373Z,74.1742
2024-05-09T09:45:41.326Z,74.2753
2024-05-09T09:46:43.147Z,75.5330
2024-05-09T09:47:45.211Z,75.6481
2024-05-09T09:48:47.332Z,75.2234
2024-05-09T09:49:49.235Z,75.2451
2024-05-09T09:50:51.190Z,74.6505
2024-05-09T09:51:53.137Z,74.5211
2024-05-09T09:52:54.972Z,74.2479
2024-05-09T09:53:56.766Z,74.4854
2024-05-09T09:54:56.918Z,74.1535
2024-05-09T09:55:58.652Z,72.6678
2024-05-09T09:57:00.452Z,72.4446
2024-05-09T09:58:02.461Z,71.5417
2024-05-09T09:59:04.281Z,71.4165
2024-05-09T10:00:09.571Z,71.2607
2024-05-09T10:01:08.829Z,71.2254
2024-05-09T10:02:10.994Z,71.7223
2024-05-09T10:03:13.314Z,70.6801
2024-05-09T10:04:15.309Z,70.0975
2024-05-09T10:05:17.222Z,68.7394
2024-05-09T10:06:19.118Z,68.9207
2024-05-09T10:07:21.187Z,69.3025
2024-05-09T10:08:23.119Z,68.7458
2024-05-09T10:09:25.036Z,68.2865
2024-05-09T10:10:31.728Z,67.4638
2024-05-09T10:11:29.534Z,68.6650
2024-05-09T10:12:31.554Z,68.6046
2024-05-09T10:13:33.450Z,69.6205
2024-05-09T10:14:35.396Z,68.5721
2024-05-09T10:15:37.429Z,68.9521
2024-05-09T10:16:39.234Z,69.2031
2024-05-09T10:17:41.296Z,69.2439
2024-05-09T10:18:43.570Z,70.3799
2024-05-09T10:19:45.798Z,70.6535
2024-05-09T10:20:47.675Z,70.6393
2024-05-09T10:21:49.737Z,70.2914
2024-05-09T10:22:51.740Z,69.0806
2024-05-09T10:23:53.806Z,68.4034
2024-05-09T10:24:55.740Z,68.5276
2024-05-09T10:25:57.584Z,67.5973
2024-05-09T10:26:59.438Z,68.0240
2024-05-09T10:28:01.480Z,66.9928
2024-05-09T10:29:03.584Z,67.1494
2024-05-09T10:30:11.504Z,66.4176
2024-05-09T10:31:07.964Z,66.3827
2024-05-09T10:32:09.958Z,67.5097
2024-05-09T10:33:12.180Z,67.5777
2024-05-09T10:34:14.289Z,67.5004
2024-05-09T10:35:16.284Z,66.4635
2024-05-09T10:36:18.173Z,66.7665
2024-05-09T10:37:20.280Z,68.5033
2024-05-09T10:38:22.124Z,68.6751
2024-05-09T10:39:24.053Z,68.7091
2024-05-09T10:40:31.096Z,69.3915
2024-05-09T10:41:28.396Z,69.7653
2024-05-09T10:42:30.308Z,69.5888
2024-05-09T10:43:32.420Z,70.7507
2024-05-09T10:44:34.424Z,70.1445
2024-05-09T10:45:36.467Z,70.1586
2024-05-09T10:46:38.298Z,71.0627
2024-05-09T10:47:40.324Z,70.9640
2024-05-09T10:48:42.562Z,71.3814
2024-05-09T10:49:44.564Z,71.6064
2024-05-09T10:50:46.399Z,71.0321
2024-05-09T10:51:48.380Z,71.1783
2024-05-09T10:52:50.463Z,71.0366
2024-05-09T10:53:52.298Z,70.7494
2024-05-09T10:54:54.482Z,70.7620
2024-05-09T10:55:56.402Z,69.9409
2024-05-09T10:56:58.199Z,69.2765
2024-05-09T10:58:00.333Z,68.7654
2024-05-09T10:59:02.296Z,67.6114
2024-05-09T11:00:06.307Z,66.4671
2024-05-09T11:01:06.662Z,65.3468
2024-05-09T11:02:06.752Z,66.5499
2024-05-09T11:03:08.797Z,66.5154
2024-05-09T11:04:10.775Z,66.4193
2024-05-09T11:05:12.941Z,67.2042
2024-05-09T11:06:14.905Z,65.0909
2024-05-09T11:07:17.076Z,65.0472
2024-05-09T11:08:18.923Z,65.1308
2024-05-09T11:09:20.867Z,65.1983
2024-05-09T11:10:55.334Z,63.2808
2024-05-09T11:11:57.365Z,64.4823
2024-05-09T11:12:59.445Z,65.1715
2024-05-09T11:14:01.295Z,63.8930
2024-05-09T11:15:03.240Z,64.7575
2024-05-09T11:16:05.361Z,65.0778
2024-05-09T11:17:07.430Z,66.2103
2024-05-09T11:18:09.319Z,66.7734
2024-05-09T11:19:11.276Z,65.7494
2024-05-09T11:20:19.660Z,65.4387
2024-05-09T11:21:15.712Z,66.0432
2024-05-09T11:22:17.769Z,65.4744
2024-05-09T11:23:19.717Z,63.9122
2024-05-09T11:24:21.525Z,63.1146
2024-05-09T11:25:23.489Z,62.9655
2024-05-09T11:26:25.605Z,62.9627
2024-05-09T11:27:27.465Z,63.0774
2024-05-09T11:28:29.273Z,63.1856
2024-05-09T11:29:31.103Z,63.0968
2024-05-09T11:30:32.917Z,63.9128
2024-05-09T11:31:35.019Z,64.6964
2024-05-09T11:32:37.066Z,66.4458
2024-05-09T11:33:39.403Z,65.3356
2024-05-09T11:34:41.547Z,65.6164
2024-05-09T11:35:43.543Z,64.9952
2024-05-09T11:36:45.589Z,65.1974
2024-05-09T11:37:47.414Z,66.3591
2024-05-09T11:38:49.519Z,65.0755
2024-05-09T11:39:51.553Z,65.7576
2024-05-09T11:40:53.428Z,66.3017
2024-05-09T11:41:55.409Z,67.5478
2024-05-09T11:42:57.347Z,65.6181
2024-05-09T11:43:59.197Z,64.8605
2024-05-09T11:45:01.313Z,63.3736
2024-05-09T11:46:03.783Z,64.4925
2024-05-09T11:47:03.573Z,62.7172
2024-05-09T11:48:05.707Z,63.4653
2024-05-09T11:49:07.885Z,63.8428
2024-05-09T11:50:15.999Z,64.4464
2024-05-09T11:51:11.904Z,65.2216
2024-05-09T11:52:13.991Z,65.5639
2024-05-09T11:53:16.054Z,66.3156
2024-05-09T11:54:17.860Z,67.0229
2024-05-09T11:55:19.903Z,67.4860
2024-05-09T11:56:22.010Z,67.9378
2024-05-09T11:57:23.957Z,68.0142
2024-05-09T11:58:25.796Z,68.5516
2024-05-09T11:59:27.618Z,68.9994
2024-05-09T12:00:36.513Z,67.8868
2024-05-09T12:01:32.385Z,67.8188
2024-05-09T12:02:34.414Z,67.6829
2024-05-09T12:03:36.628Z,66.8956
2024-05-09T12:04:38.785Z,67.2344
2024-05-09T12:05:41.065Z,66.2622
2024-05-09T12:06:43.222Z,66.0710
2024-05-09T12:07:45.160Z,66.4336
2024-05-09T12:08:46.956Z,66.4812
2024-05-09T12:09:48.929Z,65.2968
2024-05-09T12:10:50.885Z,63.3945
2024-05-09T12:11:53.131Z,62.6655
2024-05-09T12:12:55.278Z,62.0620
2024-05-09T12:13:57.329Z,62.4829
2024-05-09T12:14:59.291Z,63.1137
2024-05-09T12:16:01.260Z,64.2566
2024-05-09T12:17:03.427Z,64.0244
2024-05-09T12:18:05.505Z,64.2492
2024-05-09T12:19:07.588Z,65.4140
2024-05-09T12:20:17.425Z,65.6602
2024-05-09T12:21:11.776Z,65.0620
2024-05-09T12:22:13.719Z,64.9608
2024-05-09T12:23:15.644Z,66.0007
2024-05-09T12:24:18.531Z,63.3985
2024-05-09T12:25:18.113Z,62.8929
2024-05-09T12:26:20.028Z,62.5281
2024-05-09T12:27:22.167Z,63.5786
2024-05-09T12:28:24.168Z,63.5460
2024-05-09T12:29:26.199Z,62.4908
2024-05-09T12:30:35.771Z,60.6262
2024-05-09T12:31:30.577Z,61.8544
2024-05-09T12:32:32.657Z,63.0236
2024-05-09T12:33:34.729Z,62.3987